Aviation Digital Data Service (ADDS)

Output produced by METARs form (1005 UTC 19 January 2019)
found at http://www.aviationweather.gov/metar/data/
 
UNAA 190930Z 00000MPS 2300 BR NSC M15/M17 Q1029 R02/490049 NOSIG RMK QFE749
TAF UNAA 190758Z 1909/2009 14002MPS 1700 BR FU SCT005 
     TEMPO 1909/1911 0900 FZFG VV002 
     BECMG 1911/1912 FEW005 SCT011 
     TEMPO 1912/1915 1000 BR FU SCT005 
     TEMPO 1921/2006 0900 FZFG
       
UOOO 190930Z 18011MPS 2200 BLSN NSC M13/M15 Q0989 R19/39//37 NOSIG RMK QFE726/0968
TAF UOOO 190757Z 1909/2009 17011G17MPS 1200 SHSN BLSN BKN010CB 
     TEMPO 1909/1922 25006G11MPS 0600 +SHSN DRSN VV003 
     FM192200 22008G13MPS 2500 DRSN HZ BKN007 
     TEMPO 1922/2009 1000 HZ SCT004
       
URWA 190930Z 25004MPS 9999 BKN043 04/M01 Q1019 R27/010060 NOSIG RMK QFE766/1021
TAF URWA 190800Z 1909/1918 25003G08MPS 9999 SCT020 
     TEMPO 1909/1915 BKN011
       
USCC 190930Z 13003MPS 9999 BKN040 M02/M06 Q1011 R27/000060 NOSIG RMK QFE738
TAF USCC 190800Z 1909/2009 21003G10MPS 5000 FU BKN020 
     BECMG 1912/1914 3100 -SN BR BKN011
       
UNBB 190930Z 19003MPS CAVOK M07/M08 Q1024 R24/450240 NOSIG RMK QFE746
TAF UNBB 190800Z 1909/2009 19005G10MPS 9999 SCT020 
     TEMPO 1912/2009 3100 BR FU SCT002 BKN011
       
UWKE 190930Z 21005G10MPS 4100 -SN BR BLSN OVC006 M04/M06 Q1006 R21/390040 NOSIG RMK OBST OBSC QFE737/0983
TAF UWKE 190745Z 1909/2009 20006G12MPS 3100 BR DRSN OVC005 
     TEMPO 1909/1921 23007G14MPS 0700 +SN FZDZ BLSN OVC002 
     FM192100 27003G09MPS 3100 -SN OVC011 
     TEMPO 1921/2009 25006G12MPS 2100 -SHSN BKN005 BKN015CB
       
UUOB 190930Z 34004MPS 9999 BKN020 M03/M06 Q1014 R29/590332 NOSIG
TAF UUOB 190800Z 1909/1918 31006G11MPS 3100 BR OVC011 
     TEMPO 1909/1911 1200 SN BR OVC003
       
URMO 190930Z VRB01MPS 9999 NSC 04/M06 Q1017 R09/010070 NOSIG RMK QFE719/0959
TAF URMO 190800Z 1909/1918 12003G08MPS 9999 SCT020
       
TAF AMD ULPB 190903Z 1909/1918 24003MPS 6000 BKN011 BKN020 
     TEMPO 1909/1915 1200 SHSN BR BKN004 BKN015CB 
     TEMPO 1915/1918 1000 BR BKN004 BKN015
       
USPP 190930Z 21010MPS 8000 -SN DRSN BKN015 M04/M07 Q1003 R21/450250 TEMPO 0900 FZRA +SN BLSN VV005 RMK QFE741
TAF USPP 190758Z 1909/2009 21008MPS 4000 -SN OVC011 
     TEMPO 1909/1922 18013MPS 1100 SN BLSN VV007 
     BECMG 1922/1923 24003MPS 
     BECMG 2000/2002 9999 NSW
       
UIBB 190930Z 17004MPS 130V190 9999 NSC M11/M14 Q1020 R30/490234 NOSIG RMK QFE722/0963
TAF UIBB 190800Z 1909/2009 15003MPS 9999 SCT016CB 
     BECMG 1916/1918 25005MPS 3100 -SHSN
       
UUBP 190900Z 25004MPS CAVOK M05/M09 Q1013 R16/850240 NOSIG RMK QFE741/0989
TAF UUBP 190750Z 1909/1918 24004MPS 9999 BKN030 
     TEMPO 1913/1916 6000 -SHSN BKN008 SCT020CB
       
UWKS 190930Z 24008MPS 9000 -SNRA BKN015 01/M01 Q1002 R24/550540 TEMPO 1500 SNRA BKN007 RMK QFE738
TAF UWKS 190757Z 1909/1918 27007G13MPS 5000 -SNRA BKN011 
     TEMPO 1909/1912 24009G15MPS 1200 SNRA FZRA BKN005
       
UUOO 190930Z 30006MPS 9999 -SN OVC019 M01/M04 Q1011 R30/510142 NOSIG RMK QFE745
TAF UUOO 190800Z 1909/1918 30006MPS 6000 -SN BKN011
       
UUDD 190930Z 25005MPS 9999 FEW018 M05/M09 Q1007 R88/550294 NOSIG
TAF UUDD 190756Z 1909/2015 23006MPS 6000 BKN011 TXM05/1911Z TNM10/2003Z 
     TEMPO 1909/1921 29008G13MPS 1000 SHSN BLSN FEW004 BKN012CB 
     TEMPO 2007/2015 23012MPS 1100 SHSN BLSN FEW005 BKN012CB
       
URWI 190930Z 22005MPS 9999 FEW/// 04/M03 Q1018 R27/010060 NOSIG
TAF URWI 190800Z 1909/1918 22005G10MPS 9999 BKN011 SCT020CB
       
URWW 190930Z 24004MPS 9999 OVC007 01/00 Q1014 R24/710160 NOSIG RMK OBST OBSC
TAF URWW 190759Z 1909/1918 23008G14MPS 3100 BR BKN007 
     TEMPO 1909/1913 26006G12MPS OVC003 
     BECMG 1913/1915 0300 FG OVC002 
     TEMPO 1915/1918 27006G12MPS 3100 -SHSNRA BR BKN003 BKN020CB
       
UHBB 190930Z 02004MPS 7000 -SN FEW033 M18/M20 Q1017 RESN R36/490150 TEMPO 0900 +SN VV003 RMK QFE745/0993
TAF UHBB 190737Z 1909/2009 35003MPS 3100 -SN BKN020 
     TEMPO 1909/1918 1400 SN BKN010 
     FM191800 33003MPS 9999 BKN020
       
UIII 190930Z 17002MPS CAVOK M07/M13 Q1026 R12/810550 NOSIG RMK QFE727/0970
TAF UIII 190800Z 1909/2009 14005MPS CAVOK
       
UIAA 190930Z 21004MPS 9999 NSC M11/M19 Q1024 R29/410150 NOSIG RMK QFE709/0946
TAF UIAA 190800Z 1909/2009 23003MPS 9999 NSC
       
UWKD 190930Z 21005MPS 9999 OVC016 01/M02 Q1004 R29/450340 NOSIG RMK QFE742/0990
TAF UWKD 190759Z 1909/2009 21006G12MPS 5000 -SNRA BR OVC007 TX01/1909Z
TNM15/2001Z 
     TEMPO 1909/1912 1000 SNRA FZRA OVC004 
     FM191200 28005MPS 5000 -SN BR OVC008 
     TEMPO 1912/1918 3100 -SN OVC005 
     TEMPO 1918/2003 1000 BR BKN003 
     BECMG 1918/1920 26003MPS
       
UNEE 190930Z 14004MPS CAVOK M07/M11 Q1022 R23/851032 NOSIG RMK QFE743
TAF UNEE 190800Z 1909/2009 16003G08MPS 9999 SCT020 
     TEMPO 1915/2003 3100 BR FU BKN011
       
UHSS 190930Z 32004MPS 9999 FEW040 M11/M16 Q1012 R01/810360 NOSIG RMK QFE758/1011
TAF UHSS 190800Z 1909/2015 34003MPS 9999 BKN030CB
       
UMKK 190930Z 23005MPS 9999 BKN025 01/M01 Q1017 R24/29//50 NOSIG RMK QFE761/1015
TAF UMKK 190758Z 1909/2009 22006G11MPS 9999 BKN030 
     BECMG 1919/1921 24007G12MPS BKN011 BKN015CB 
     TEMPO 1921/2009 26009MPS 3100 -SHSNRA BKN005 BKN012CB
       
UHWW 190930Z 23004MPS 9999 NSC M09/M19 Q1018 R25L/0///70 NOSIG RMK QFE762
TAF UHWW 190800Z 1909/2009 36003MPS 9999 SCT030 
     BECMG 1910/1912 5000 HZ NSC
       
USSS 190930Z 19004MPS 9999 OVC039 M04/M07 Q1008 R26R/820350 NOSIG RMK QFE736/0981
TAF USSS 190756Z 1909/2009 22003G12MPS 9999 BKN015 
     BECMG 1912/1914 6000 -SHSN BKN011 SCT020CB 
     BECMG 1918/1920 3100 -SHSN 
     BECMG 2001/2003 27003G12MPS
       
UNKL 190930Z 21005G10MPS CAVOK M02/M14 Q1020 R29/CLRD65 NOSIG RMK QFE739
TAF UNKL 190755Z 1909/2009 21005G14MPS 9999 SCT040
       
UWWW 190930Z 21004MPS 5000 BR OVC004 M02/M03 Q1010 R15/410242 NOSIG RMK QFE746/0994
TAF UWWW 190802Z 1909/2009 20007G13MPS 3100 -SN BR OVC004 TXM00/1918Z
TNM07/2003Z 
     TEMPO 1909/1922 24003G09MPS 0300 +SHSN FZDZ FZFG VV002 
     FM192200 28003G09MPS 3100 BR BKN011 
     TEMPO 1922/2009 32007G13MPS 1000 SN BLSN BKN007
       
USCM 190930Z 18004MPS 9999 BKN020 M04/M07 Q1011 R18/390135 NOSIG RMK QFE721
TAF USCM 190800Z 1909/1918 18003G12MPS 5000 BR BKN011 
     TEMPO 1909/1918 3100 -SN BR
       
URMM 190930Z 30002MPS 9999 NSC 05/M10 Q1018 R12/090070 NOSIG RMK QFE736/0981
TAF URMM 190758Z 1909/2009 28003G08MPS 9999 BKN020 TX06/1912Z TNM04/2003Z 
     TEMPO 1909/1915 10003G08MPS 
     TEMPO 1915/1924 VRB01MPS 3100 BR OVC011 
     TEMPO 2000/2009 3100 -SHSN BKN011 BKN020CB
       
UIUU 190930Z VRB01MPS 8000 NSC M15/M19 Q1031 R26/490350 NOSIG RMK QFE729/0972
TAF UIUU 190800Z 1909/2009 25003G08MPS 2900 BR FU NSC 
     TEMPO 1909/2004 1200 BR FU
       
ULMM 190930Z 17001MPS 9999 FEW001 M28/M32 Q1001 R31/390140 NOSIG RMK QBB040 OBST OBSC QFE744
TAF ULMM 190750Z 1909/2009 16002MPS 9999 SCT011 
     TEMPO 1909/2021 21002MPS 4000 -SG BR SCT003 OVC011 
     TEMPO 1921/2009 VRB01MPS 3100 -SHSN BR SCT002 BKN011CB
       
URMN 190900Z 14001MPS 9999 NSC 05/M07 Q1017 R24/010070 NOSIG RMK QFE726
TAF URMN 190800Z 1909/1918 06003MPS 9999 BKN020 
     TEMPO 1912/1918 3100 BR BKN011
       
USNN 190930Z 24006MPS 9999 DRSN NSC M06/M09 Q1007 R21/420338 NOSIG RMK QFE750
TAF USNN 190800Z 1909/2009 23006G11MPS 5000 -SN DRSN BKN010 
     TEMPO 1909/1912 2000 SHSN BKN007 BKN015CB
       
UHHH 190930Z 15001MPS CAVOK M15/M22 Q1016 R23L/090060 NOSIG RMK QFE755/1007
TAF UHHH 190746Z 1909/2015 16003MPS 9999 SCT020 
     TEMPO 1914/1924 07003MPS 2000 SN SCT007 BKN020
       
UWOO 190930Z 20001MPS 5000 -SN OVC007 M13/M14 Q1016 R08/490242 NOSIG RMK QFE752/1002
TAF UWOO 190753Z 1909/2009 16003G08MPS 3100 -SN BR SCT004 BKN007 TXM01/2008Z
TNM10/1909Z 
     TEMPO 1912/2006 20004MPS 0400 FZDZ +SN FZFG OVC003 
     TEMPO 2006/2009 30006G12MPS 1200 SHSN BLSN BKN004 SCT015CB
       
UWOR 190900Z VRB01MPS CAVOK M12/M15 Q1014 R25/990135 NOSIG RMK QFE737/0983
TAF UWOR 190759Z 1909/1918 31003G09MPS 3100 -SN BR BKN011 
     TEMPO 1912/1918 23003MPS 1000 BR OVC003
       
URKK 190930Z 18005MPS CAVOK 08/03 Q1018 R23L/19//65 NOSIG RMK QFE760
TAF URKK 190756Z 1909/2009 18005G10MPS 9999 SCT030 
     TEMPO 1909/1918 22008G14MPS 
     FM191800 04003G08MPS 5000 -SHRA BKN011 BKN020CB 
     TEMPO 1918/2009 32006G13MPS 3100 -SHRASN BR BKN005 BKN020CB
       
ULOO 190930Z 26002MPS P5000 SCT023 M07/M09 Q1009 R19/090050 NOSIG RMK QFE753
TAF ULOO 190758Z 1909/1918 24003MPS 6000 SCT011 BKN017 
     TEMPO 1912/1918 3100 -SHSN BR SCT006 BKN015CB
       
ULLI 190930Z 28003MPS 9999 SCT007 BKN021 M10/M11 Q1005 R28R/550343 NOSIG RMK OBST OBSC
TAF ULLI 190800Z 1909/2009 25003MPS 6000 BKN015 
     TEMPO 1909/1912 3100 -SN BR SCT010 BKN015 
     FM191800 19005G10MPS 5000 -SN OVC011 
     TEMPO 1920/2006 18007G12MPS 1000 SHSN BLSN BKN006 BKN015CB 
     FM200600 29006G12MPS 3100 -SN BLSN OVC011 
     TEMPO 2006/2009 1200 SHSN BKN007 BKN015CB
       
USTR 190930Z 21005MPS CAVOK M06/M11 Q1010 R12/350060 NOSIG RMK QFE749/0999
TAF USTR 190753Z 1909/2009 20006MPS 9999 SCT015 BKN030 
     TEMPO 1909/1915 3100 -SHSN BKN015CB 
     TEMPO 2000/2009 19008MPS 2100 -SHSN BLSN BKN015CB
       
UUEE 190930Z 22006MPS 9999 -SN OVC010 M06/M07 Q1006 R24L/420351 NOSIG
TAF UUEE 190759Z 1909/2009 24006MPS 9000 BKN011 TXM05/1912Z TNM10/2003Z 
     TEMPO 1909/1921 29008G14MPS 1000 SHSN BLSN SCT007 BKN010CB 
     BECMG 2006/2008 3100 -SN OVC007
       
URMT 190930Z 15002MPS CAVOK 07/M08 Q1018 R25/010070 NOSIG RMK QFE724
TAF URMT 190800Z 1909/1918 22003G08MPS 9999 SCT020 
     TEMPO 1909/1912 16003G08MPS
       
URSS 190930Z 16002MPS 9999 FEW050 09/M02 Q1022 R06/090070 R02/090070 NOSIG RMK R02/19002MPS QFE765
TAF URSS 190757Z 1909/2009 14005MPS 9999 NSC 
     TEMPO 1909/1912 06007MPS 
     BECMG 1915/1916 06005MPS SCT100 
     BECMG 2003/2004 BKN030CB BKN100 
     TEMPO 2004/2009 -SHRA BKN011 BKN020CB BKN100
       
UHMM 190930Z 12001MPS 9999 NSC M23/M26 Q1006 R10/82//45 NOSIG RMK QFE740
TAF UHMM 190750Z 1909/2015 09003G08MPS 9999 SCT030 OVC070 
     FM200000 03005G12MPS 9999 BKN030CB OVC070 
     TEMPO 2000/2015 3100 -SHSN OVC025CB
       
UWGG 190930Z 29004MPS 9999 FEW016 M05/M09 Q1007 R36R/850238 NOSIG
TAF UWGG 190755Z 1909/2009 29003MPS 9999 BKN016 TXM04/1909Z TNM08/1923Z 
     TEMPO 1909/1918 27005G11MPS
       
USRR 190930Z 22006MPS CAVOK M07/M09 Q1005 R25/35//40 NOSIG RMK QFE748
TAF USRR 190755Z 1909/2009 23007G14MPS 9999 BKN015CB 
     TEMPO 1909/1915 3100 -SHSN BLSN BKN011 BKN015CB 
     TEMPO 1915/2003 0800 +SHSN VV003
       
UUYY 190930Z 30002MPS 9999 SCT036 M08/M11 Q0996 R36/450233 NOSIG RMK QFE738/0985
TAF UUYY 190800Z 1909/2009 22003MPS 4000 -SHSN BR BKN011 BKN015CB 
     TEMPO 1909/1912 30003G08MPS 1000 SHSN BR BKN005 BKN012CB 
     TEMPO 1912/2009 FEW005 BKN012CB
       
ULAA 190930Z 08003MPS 7000 -SN OVC010 M14/M16 Q0998 R08/490239 NOSIG RMK QFE747/0997
TAF ULAA 190800Z 1909/2009 08003MPS 4000 -SN BR BKN007 
     TEMPO 1909/1913 10005MPS 1400 SHSN BR BKN005 BKN011CB 
     TEMPO 1913/2009 2000 SN BR BKN006
       
UNNT 190930Z 17003MPS CAVOK M05/M10 Q1021 R25/390150 R16/390150 NOSIG RMK QFE755/1007
TAF UNNT 190800Z 1909/2009 18006G12MPS CAVOK 
     TEMPO 1912/2003 13003G08MPS 3100 FU BR BKN011 
     FM200300 24006G12MPS 9999 BKN011CB 
     TEMPO 2003/2009 3100 -SHSN BKN005 BKN016CB
       
UNOO 190930Z 16001MPS 1900 R25/1700U BR OVC004 M06/M07 Q1016 R25/390135 NOSIG RMK QBB120 OBST OBSC QFE754
TAF UNOO 190755Z 1909/2009 16003G08MPS 2100 -SN BR BKN005 
     TEMPO 1909/1911 1000 BR VV003 
     TEMPO 1911/2005 0400 FZFG VV002
       
UWSS 190930Z 24004MPS 6000 OVC008 01/M01 Q1011 R30/850341 NOSIG RMK OBST OBSC QFE744
TAF UWSS 190800Z 1909/1918 23006MPS 3100 BR OVC008 
     TEMPO 1909/1912 2100 BR OVC006 
     TEMPO 1912/1918 26007MPS 1600 SN BR OVC004
       
UUDL 190930Z 23005MPS 8000 -SHSN OVC012CB M06/M09 Q1004 R23/850346 NOSIG RMK QFE744
TAF UUDL 190800Z 1909/2009 24003MPS 8000 BKN020 
     TEMPO 1909/1921 29005MPS 1000 SHSN VV004 
     TEMPO 1921/2009 19005MPS 3100 -SN BKN011 BKN020
       
UWUU 190930Z 19007MPS 9999 -SN OVC017 M08/M11 Q1012 R14R/410556 NOSIG RMK QFE749/0999
TAF UWUU 190800Z 1909/2009 18006G12MPS 9999 OVC020 
     TEMPO 1909/1912 15007G12MPS 4500 -SN OVC015 
     TEMPO 1912/1921 21008G13MPS 3100 -SN OVC011 
     TEMPO 1921/2009 21008G14MPS 0800 +SN OVC006
       
UHMA 190900Z 02003MPS 9000 -SN BKN033 OVC048 M20/M22 Q1018 R01/////// NOSIG RMK END R01/02003MPS QFE760/1013
TAF UHMA 190740Z 1909/2009 36005MPS 9999 SCT008 BKN033 
     TEMPO 1909/2009 03003MPS 4000 -SN BR SCT005 BKN020
       
URML 190930Z 10004MPS 9999 NSC 05/M04 Q1020 R32/010070 NOSIG RMK QFE765/1020
TAF URML 190800Z 1909/1918 08003G08MPS 9999 SCT015 
     FM191500 16003G08MPS 5000 BR SCT011
       
URKA 190930Z 19011MPS 9999 BKN049 BKN075 09/06 Q1017 R22/010070 TEMPO 18011G17MPS RMK QFE758/1010
TAF URKA 190756Z 1909/2009 19010G16MPS 9999 SCT015 BKN030CB 
     TEMPO 1915/1921 34005G10MPS 3100 -SHRA BKN011 BKN020CB 
     FM192100 03003G08MPS 9999 BKN011 BKN020CB 
     TEMPO 1921/2009 3100 BR BKN020CB
       
UUWW 190930Z 22005MPS 9000 -SHSN BKN012 BKN049CB M06/M09 Q1007 R19/410345 NOSIG
TAF UUWW 190751Z 1909/2009 25006MPS 8000 BKN011 TXM05/1912Z TNM08/2006Z 
     TEMPO 1909/1912 28008G13MPS 3100 -SHSN BLSN BKN006 SCT020CB 
     TEMPO 1912/1918 29008G14MPS 1000 SHSN BLSN BKN004 BKN015CB 
     TEMPO 1918/2006 BKN004 
     TEMPO 2006/2009 23008G14MPS 3100 -SHSN BLSN BKN004 BKN015CB
       
UWLW 190900Z 19004MPS 5000 BR BKN012 00/M01 Q1007 R20/820555 NOSIG RMK QFE750
TAF UWLW 190745Z 1909/2009 20005G10MPS 5000 -SN OVC011 
     TEMPO 1909/1918 24006G13MPS 1500 SN BLSN OVC005 
     BECMG 1918/1919 29003MPS 
     TEMPO 1919/1924 33005G10MPS
       
UEEE 190930Z 02001MPS 0350 0300NE R23L/0800D FG VV003 M41/M46 Q1024 R23L/490150 NOSIG RMK QBB090 QFE759
TAF UEEE 190800Z 1909/2015 VRB01MPS 0300 FG VV002 TXM41/1909Z TNM44/1923Z 
     TEMPO 1909/1924 0800 FG NSC
       
UHPP 190900Z 01006MPS 330V070 9999 -SHSN BKN033CB BKN048 M02/M06 Q0984 R34L/720355 NOSIG RMK QFE735/0980
TAF UHPP 190746Z 1909/2015 35005G12MPS 9999 BKN020CB 
     TEMPO 1909/1912 05006G17MPS 3100 -SHSN DRSN BKN011 OVC020CB 
     FM191200 04009G18MPS 2000 SHSN BLSN BKN007 OVC020CB 
     TEMPO 1912/2009 09011G25MPS 0500 +SHSN BLSN VV003